Chelmsley Wood, United Kingdom
Current Conditions -  °F | °C
As of 1:20 AM on Saturday 22 Nov 2014 (Local Time) from EGBB Reporting Station
Drizzle Drizzle  
Wind Chill: 41°   Ceiling: 200
Heat Index: 46°   Visibility: 0.68mi
Dew Point: 46°   Wind: 12mph
Humidity: 100%   Direction: 140°SE
Pressure: 29.8"   Gusts: NA
Location:  52.48°N, 1.74°W
Report Text: EGBB 220120Z AUTO 14010KT 1100 -DZ OVC002/// 08/08 Q1009 REDZ
Loading
Personal Weather Stations






























Interactive Weather Map New forecast layout! Learn more

10-Day Weather Forecast

Advertisements
Track Severe Weather on mobile